sensor_id;sensor_type;location;lat;lon;timestamp;temperature;humidity
27848;DHT22;15212;48.830;8.730;2024-03-02T00:01:09;5.20;99.90
27848;DHT22;15212;48.830;8.730;2024-03-02T00:03:38;5.20;99.90
27848;DHT22;15212;48.830;8.730;2024-03-02T00:06:07;5.30;99.90
27848;DHT22;15212;48.830;8.730;2024-03-02T00:08:36;5.20;99.90
27848;DHT22;15212;48.830;8.730;2024-03-02T00:11:04;5.20;99.90
27848;DHT22;15212;48.830;8.730;2024-03-02T00:13:32;5.20;99.90
27848;DHT22;15212;48.830;8.730;2024-03-02T00:16:02;5.20;99.90
27848;DHT22;15212;48.830;8.730;2024-03-02T00:18:33;5.20;99.90
27848;DHT22;15212;48.830;8.730;2024-03-02T00:21:03;5.20;99.90
27848;DHT22;15212;48.830;8.730;2024-03-02T00:23:35;5.20;99.90
27848;DHT22;15212;48.830;8.730;2024-03-02T00:26:06;5.20;99.90
27848;DHT22;15212;48.830;8.730;2024-03-02T00:28:36;5.20;99.90
27848;DHT22;15212;48.830;8.730;2024-03-02T00:33:43;5.10;99.90
27848;DHT22;15212;48.830;8.730;2024-03-02T00:36:14;5.10;99.90
27848;DHT22;15212;48.830;8.730;2024-03-02T00:38:47;5.10;99.90
27848;DHT22;15212;48.830;8.730;2024-03-02T00:41:30;5.10;99.90
27848;DHT22;15212;48.830;8.730;2024-03-02T00:44:00;5.10;99.90
27848;DHT22;15212;48.830;8.730;2024-03-02T00:46:39;5.10;99.90
27848;DHT22;15212;48.830;8.730;2024-03-02T00:49:21;5.10;99.90
27848;DHT22;15212;48.830;8.730;2024-03-02T00:51:51;5.00;99.90
27848;DHT22;15212;48.830;8.730;2024-03-02T00:54:22;5.00;99.90
27848;DHT22;15212;48.830;8.730;2024-03-02T00:56:56;5.00;99.90
27848;DHT22;15212;48.830;8.730;2024-03-02T00:59:25;5.00;99.90
27848;DHT22;15212;48.830;8.730;2024-03-02T01:01:53;5.00;99.90
27848;DHT22;15212;48.830;8.730;2024-03-02T01:04:22;4.90;99.90
27848;DHT22;15212;48.830;8.730;2024-03-02T01:06:50;5.00;99.90
27848;DHT22;15212;48.830;8.730;2024-03-02T01:09:19;4.90;99.90
27848;DHT22;15212;48.830;8.730;2024-03-02T01:11:47;5.00;99.90
27848;DHT22;15212;48.830;8.730;2024-03-02T01:14:15;5.00;99.90
27848;DHT22;15212;48.830;8.730;2024-03-02T01:16:44;4.90;99.90
27848;DHT22;15212;48.830;8.730;2024-03-02T01:19:12;4.90;99.90
27848;DHT22;15212;48.830;8.730;2024-03-02T01:21:42;4.80;99.90
27848;DHT22;15212;48.830;8.730;2024-03-02T01:24:10;4.80;99.90
27848;DHT22;15212;48.830;8.730;2024-03-02T01:26:39;4.80;99.90
27848;DHT22;15212;48.830;8.730;2024-03-02T01:29:08;4.80;99.90
27848;DHT22;15212;48.830;8.730;2024-03-02T01:31:36;4.80;99.90
27848;DHT22;15212;48.830;8.730;2024-03-02T01:34:06;4.70;99.90
27848;DHT22;15212;48.830;8.730;2024-03-02T01:36:34;4.80;99.90
27848;DHT22;15212;48.830;8.730;2024-03-02T01:39:03;4.70;99.90
27848;DHT22;15212;48.830;8.730;2024-03-02T01:41:33;4.80;99.90
27848;DHT22;15212;48.830;8.730;2024-03-02T01:44:01;4.80;99.90
27848;DHT22;15212;48.830;8.730;2024-03-02T01:46:30;4.70;99.90
27848;DHT22;15212;48.830;8.730;2024-03-02T01:48:58;4.80;99.90
27848;DHT22;15212;48.830;8.730;2024-03-02T01:51:27;4.80;99.90
27848;DHT22;15212;48.830;8.730;2024-03-02T01:53:55;4.80;99.90
27848;DHT22;15212;48.830;8.730;2024-03-02T01:56:24;4.80;99.90
27848;DHT22;15212;48.830;8.730;2024-03-02T01:58:52;4.80;99.90
27848;DHT22;15212;48.830;8.730;2024-03-02T02:01:20;4.70;99.90
27848;DHT22;15212;48.830;8.730;2024-03-02T02:03:49;4.70;99.90
27848;DHT22;15212;48.830;8.730;2024-03-02T02:06:17;4.70;99.90
27848;DHT22;15212;48.830;8.730;2024-03-02T02:08:45;4.70;99.90
27848;DHT22;15212;48.830;8.730;2024-03-02T02:11:17;4.60;99.90
27848;DHT22;15212;48.830;8.730;2024-03-02T02:13:46;4.60;99.90
27848;DHT22;15212;48.830;8.730;2024-03-02T02:16:14;4.60;99.90
27848;DHT22;15212;48.830;8.730;2024-03-02T02:18:42;4.60;99.90
27848;DHT22;15212;48.830;8.730;2024-03-02T02:21:11;4.50;99.90
27848;DHT22;15212;48.830;8.730;2024-03-02T02:23:39;4.50;99.90
27848;DHT22;15212;48.830;8.730;2024-03-02T02:26:09;4.50;99.90
27848;DHT22;15212;48.830;8.730;2024-03-02T02:28:38;4.40;99.90
27848;DHT22;15212;48.830;8.730;2024-03-02T02:31:08;4.50;99.90
27848;DHT22;15212;48.830;8.730;2024-03-02T02:33:44;4.50;99.90
27848;DHT22;15212;48.830;8.730;2024-03-02T02:36:08;4.50;99.90
27848;DHT22;15212;48.830;8.730;2024-03-02T02:38:42;4.50;99.90
27848;DHT22;15212;48.830;8.730;2024-03-02T02:41:11;4.50;99.90
27848;DHT22;15212;48.830;8.730;2024-03-02T02:43:40;4.50;99.90
27848;DHT22;15212;48.830;8.730;2024-03-02T02:46:08;4.50;99.90
27848;DHT22;15212;48.830;8.730;2024-03-02T02:48:37;4.50;99.90
27848;DHT22;15212;48.830;8.730;2024-03-02T02:51:05;4.50;99.90
27848;DHT22;15212;48.830;8.730;2024-03-02T02:53:33;4.50;99.90
27848;DHT22;15212;48.830;8.730;2024-03-02T02:56:02;4.50;99.90
27848;DHT22;15212;48.830;8.730;2024-03-02T02:58:30;4.50;99.90
27848;DHT22;15212;48.830;8.730;2024-03-02T03:00:59;4.50;99.90
27848;DHT22;15212;48.830;8.730;2024-03-02T03:03:27;4.50;99.90
27848;DHT22;15212;48.830;8.730;2024-03-02T03:05:55;4.50;99.90
27848;DHT22;15212;48.830;8.730;2024-03-02T03:08:24;4.50;99.90
27848;DHT22;15212;48.830;8.730;2024-03-02T03:10:52;4.60;99.90
27848;DHT22;15212;48.830;8.730;2024-03-02T03:13:21;4.50;99.90
27848;DHT22;15212;48.830;8.730;2024-03-02T03:15:49;4.50;99.90
27848;DHT22;15212;48.830;8.730;2024-03-02T03:18:17;4.60;99.90
27848;DHT22;15212;48.830;8.730;2024-03-02T03:20:46;4.60;99.90
27848;DHT22;15212;48.830;8.730;2024-03-02T03:23:14;4.60;99.90
27848;DHT22;15212;48.830;8.730;2024-03-02T03:25:44;4.50;99.90
27848;DHT22;15212;48.830;8.730;2024-03-02T03:28:12;4.50;99.90
27848;DHT22;15212;48.830;8.730;2024-03-02T03:30:40;4.50;99.90
27848;DHT22;15212;48.830;8.730;2024-03-02T03:33:09;4.50;99.90
27848;DHT22;15212;48.830;8.730;2024-03-02T03:35:38;4.50;99.90
27848;DHT22;15212;48.830;8.730;2024-03-02T03:38:06;4.50;99.90
27848;DHT22;15212;48.830;8.730;2024-03-02T03:40:34;4.50;99.90
27848;DHT22;15212;48.830;8.730;2024-03-02T03:43:03;4.60;99.90
27848;DHT22;15212;48.830;8.730;2024-03-02T03:45:32;4.60;99.90
27848;DHT22;15212;48.830;8.730;2024-03-02T03:48:01;4.60;99.90
27848;DHT22;15212;48.830;8.730;2024-03-02T03:50:30;4.60;99.90
27848;DHT22;15212;48.830;8.730;2024-03-02T03:52:58;4.60;99.90
27848;DHT22;15212;48.830;8.730;2024-03-02T03:55:26;4.60;99.90
27848;DHT22;15212;48.830;8.730;2024-03-02T03:57:55;4.60;99.90
27848;DHT22;15212;48.830;8.730;2024-03-02T04:00:23;4.60;99.90
27848;DHT22;15212;48.830;8.730;2024-03-02T04:02:51;4.60;99.90
27848;DHT22;15212;48.830;8.730;2024-03-02T04:05:20;4.60;99.90
27848;DHT22;15212;48.830;8.730;2024-03-02T04:07:48;4.60;99.90
27848;DHT22;15212;48.830;8.730;2024-03-02T04:10:17;4.50;99.90
27848;DHT22;15212;48.830;8.730;2024-03-02T04:12:47;4.50;99.90
27848;DHT22;15212;48.830;8.730;2024-03-02T04:15:17;4.50;99.90
27848;DHT22;15212;48.830;8.730;2024-03-02T04:17:46;4.50;99.90
27848;DHT22;15212;48.830;8.730;2024-03-02T04:20:14;4.60;99.90
27848;DHT22;15212;48.830;8.730;2024-03-02T04:22:43;4.60;99.90
27848;DHT22;15212;48.830;8.730;2024-03-02T04:25:11;4.60;99.90
27848;DHT22;15212;48.830;8.730;2024-03-02T04:27:39;4.50;99.90
27848;DHT22;15212;48.830;8.730;2024-03-02T04:30:09;4.60;99.90
27848;DHT22;15212;48.830;8.730;2024-03-02T04:32:38;4.60;99.90
27848;DHT22;15212;48.830;8.730;2024-03-02T04:35:07;4.60;99.90
27848;DHT22;15212;48.830;8.730;2024-03-02T04:37:36;4.60;99.90
27848;DHT22;15212;48.830;8.730;2024-03-02T04:40:05;4.60;99.90
27848;DHT22;15212;48.830;8.730;2024-03-02T04:42:37;4.60;99.90
27848;DHT22;15212;48.830;8.730;2024-03-02T04:45:06;4.60;99.90
27848;DHT22;15212;48.830;8.730;2024-03-02T04:47:35;4.60;99.90
27848;DHT22;15212;48.830;8.730;2024-03-02T04:50:04;4.60;99.90
27848;DHT22;15212;48.830;8.730;2024-03-02T04:52:34;4.60;99.90
27848;DHT22;15212;48.830;8.730;2024-03-02T04:55:03;4.60;99.90
27848;DHT22;15212;48.830;8.730;2024-03-02T04:57:39;4.60;99.90
27848;DHT22;15212;48.830;8.730;2024-03-02T05:00:08;4.60;99.90
27848;DHT22;15212;48.830;8.730;2024-03-02T05:02:37;4.60;99.90
27848;DHT22;15212;48.830;8.730;2024-03-02T05:05:05;4.60;99.90
27848;DHT22;15212;48.830;8.730;2024-03-02T05:07:34;4.60;99.90
27848;DHT22;15212;48.830;8.730;2024-03-02T05:10:02;4.60;99.90
27848;DHT22;15212;48.830;8.730;2024-03-02T05:12:31;4.60;99.90
27848;DHT22;15212;48.830;8.730;2024-03-02T05:15:04;4.60;99.90
27848;DHT22;15212;48.830;8.730;2024-03-02T05:17:34;4.60;99.90
27848;DHT22;15212;48.830;8.730;2024-03-02T05:20:03;4.60;99.90
27848;DHT22;15212;48.830;8.730;2024-03-02T05:22:34;4.60;99.90
27848;DHT22;15212;48.830;8.730;2024-03-02T05:25:04;4.50;99.90
27848;DHT22;15212;48.830;8.730;2024-03-02T05:27:33;4.50;99.90
27848;DHT22;15212;48.830;8.730;2024-03-02T05:30:01;4.50;99.90
27848;DHT22;15212;48.830;8.730;2024-03-02T05:32:32;4.50;99.90
27848;DHT22;15212;48.830;8.730;2024-03-02T05:35:01;4.40;99.90
27848;DHT22;15212;48.830;8.730;2024-03-02T05:37:29;4.40;99.90
27848;DHT22;15212;48.830;8.730;2024-03-02T05:39:57;4.50;99.90
27848;DHT22;15212;48.830;8.730;2024-03-02T05:42:26;4.50;99.90
27848;DHT22;15212;48.830;8.730;2024-03-02T05:44:54;4.50;99.90
27848;DHT22;15212;48.830;8.730;2024-03-02T05:47:23;4.50;99.90
27848;DHT22;15212;48.830;8.730;2024-03-02T05:49:51;4.50;99.90
27848;DHT22;15212;48.830;8.730;2024-03-02T05:52:19;4.50;99.90
27848;DHT22;15212;48.830;8.730;2024-03-02T05:54:48;4.60;99.90
27848;DHT22;15212;48.830;8.730;2024-03-02T05:57:16;4.60;99.90
27848;DHT22;15212;48.830;8.730;2024-03-02T05:59:46;4.60;99.90
27848;DHT22;15212;48.830;8.730;2024-03-02T06:02:14;4.50;99.90
27848;DHT22;15212;48.830;8.730;2024-03-02T06:04:43;4.60;99.90
27848;DHT22;15212;48.830;8.730;2024-03-02T06:07:11;4.60;99.90
27848;DHT22;15212;48.830;8.730;2024-03-02T06:09:41;4.60;99.90
27848;DHT22;15212;48.830;8.730;2024-03-02T06:12:11;4.50;99.90
27848;DHT22;15212;48.830;8.730;2024-03-02T06:14:39;4.60;99.90
27848;DHT22;15212;48.830;8.730;2024-03-02T06:17:07;4.50;99.90
27848;DHT22;15212;48.830;8.730;2024-03-02T06:19:36;4.50;99.90
27848;DHT22;15212;48.830;8.730;2024-03-02T06:22:04;4.50;99.90
27848;DHT22;15212;48.830;8.730;2024-03-02T06:24:33;4.50;99.90
27848;DHT22;15212;48.830;8.730;2024-03-02T06:27:01;4.50;99.90
27848;DHT22;15212;48.830;8.730;2024-03-02T06:29:29;4.60;99.90
27848;DHT22;15212;48.830;8.730;2024-03-02T06:32:02;4.60;99.90
27848;DHT22;15212;48.830;8.730;2024-03-02T06:34:31;4.70;99.90
27848;DHT22;15212;48.830;8.730;2024-03-02T06:36:59;4.70;99.90
27848;DHT22;15212;48.830;8.730;2024-03-02T06:39:27;4.70;99.90
27848;DHT22;15212;48.830;8.730;2024-03-02T06:41:57;4.60;99.90
27848;DHT22;15212;48.830;8.730;2024-03-02T06:44:26;4.60;99.90
27848;DHT22;15212;48.830;8.730;2024-03-02T06:46:54;4.60;99.90
27848;DHT22;15212;48.830;8.730;2024-03-02T06:49:23;4.60;99.90
27848;DHT22;15212;48.830;8.730;2024-03-02T06:51:51;4.60;99.90
27848;DHT22;15212;48.830;8.730;2024-03-02T06:54:20;4.60;99.90
27848;DHT22;15212;48.830;8.730;2024-03-02T06:56:48;4.60;99.90
27848;DHT22;15212;48.830;8.730;2024-03-02T06:59:16;4.70;99.90
27848;DHT22;15212;48.830;8.730;2024-03-02T07:01:45;4.80;99.90
27848;DHT22;15212;48.830;8.730;2024-03-02T07:04:13;4.90;99.90
27848;DHT22;15212;48.830;8.730;2024-03-02T07:09:27;4.90;99.90
27848;DHT22;15212;48.830;8.730;2024-03-02T07:11:55;4.90;99.90
27848;DHT22;15212;48.830;8.730;2024-03-02T07:14:23;5.00;99.90
27848;DHT22;15212;48.830;8.730;2024-03-02T07:16:53;5.00;99.90
27848;DHT22;15212;48.830;8.730;2024-03-02T07:19:22;5.00;99.90
27848;DHT22;15212;48.830;8.730;2024-03-02T07:21:50;5.00;99.90
27848;DHT22;15212;48.830;8.730;2024-03-02T07:24:18;5.00;99.90
27848;DHT22;15212;48.830;8.730;2024-03-02T07:26:47;5.00;99.90
27848;DHT22;15212;48.830;8.730;2024-03-02T07:29:15;5.00;99.90
27848;DHT22;15212;48.830;8.730;2024-03-02T07:31:43;5.00;99.90
27848;DHT22;15212;48.830;8.730;2024-03-02T07:34:12;5.10;99.90
27848;DHT22;15212;48.830;8.730;2024-03-02T07:36:41;5.10;99.90
27848;DHT22;15212;48.830;8.730;2024-03-02T07:39:09;5.10;99.90
27848;DHT22;15212;48.830;8.730;2024-03-02T07:41:37;5.10;99.90
27848;DHT22;15212;48.830;8.730;2024-03-02T07:44:06;5.20;99.90
27848;DHT22;15212;48.830;8.730;2024-03-02T07:46:34;5.30;99.90
27848;DHT22;15212;48.830;8.730;2024-03-02T07:49:03;5.40;99.90
27848;DHT22;15212;48.830;8.730;2024-03-02T07:51:32;5.60;99.90
27848;DHT22;15212;48.830;8.730;2024-03-02T07:54:00;5.70;99.90
27848;DHT22;15212;48.830;8.730;2024-03-02T07:56:28;5.90;99.90
27848;DHT22;15212;48.830;8.730;2024-03-02T07:58:57;6.00;99.90
27848;DHT22;15212;48.830;8.730;2024-03-02T08:01:28;6.10;99.90
27848;DHT22;15212;48.830;8.730;2024-03-02T08:04:01;6.20;99.90
27848;DHT22;15212;48.830;8.730;2024-03-02T08:06:30;6.40;99.90
27848;DHT22;15212;48.830;8.730;2024-03-02T08:09:00;6.50;99.90
27848;DHT22;15212;48.830;8.730;2024-03-02T08:11:30;6.70;99.90
27848;DHT22;15212;48.830;8.730;2024-03-02T08:13:58;6.80;99.90
27848;DHT22;15212;48.830;8.730;2024-03-02T08:16:27;7.00;99.90
27848;DHT22;15212;48.830;8.730;2024-03-02T08:18:55;7.10;99.90
27848;DHT22;15212;48.830;8.730;2024-03-02T08:21:26;7.20;99.90
27848;DHT22;15212;48.830;8.730;2024-03-02T08:23:57;7.30;99.90
27848;DHT22;15212;48.830;8.730;2024-03-02T08:26:25;7.50;99.90
27848;DHT22;15212;48.830;8.730;2024-03-02T08:28:56;7.60;99.90
27848;DHT22;15212;48.830;8.730;2024-03-02T08:31:25;7.70;99.90
27848;DHT22;15212;48.830;8.730;2024-03-02T08:33:53;7.90;99.90
27848;DHT22;15212;48.830;8.730;2024-03-02T08:36:23;8.00;99.90
27848;DHT22;15212;48.830;8.730;2024-03-02T08:38:52;8.10;99.90
27848;DHT22;15212;48.830;8.730;2024-03-02T08:41:20;8.30;99.90
27848;DHT22;15212;48.830;8.730;2024-03-02T08:43:49;8.50;99.90
27848;DHT22;15212;48.830;8.730;2024-03-02T08:46:17;8.60;99.90
27848;DHT22;15212;48.830;8.730;2024-03-02T08:48:46;8.70;99.90
27848;DHT22;15212;48.830;8.730;2024-03-02T08:51:14;8.90;99.90
27848;DHT22;15212;48.830;8.730;2024-03-02T08:53:42;9.00;99.90
27848;DHT22;15212;48.830;8.730;2024-03-02T08:56:11;9.10;99.90
27848;DHT22;15212;48.830;8.730;2024-03-02T08:58:39;9.20;99.90
27848;DHT22;15212;48.830;8.730;2024-03-02T09:01:08;9.30;99.90
27848;DHT22;15212;48.830;8.730;2024-03-02T09:03:37;9.40;99.90
27848;DHT22;15212;48.830;8.730;2024-03-02T09:06:05;9.50;99.90
27848;DHT22;15212;48.830;8.730;2024-03-02T09:08:34;9.60;99.90
27848;DHT22;15212;48.830;8.730;2024-03-02T09:11:03;9.60;99.90
27848;DHT22;15212;48.830;8.730;2024-03-02T09:13:34;9.60;99.90
27848;DHT22;15212;48.830;8.730;2024-03-02T09:16:03;9.70;99.90
27848;DHT22;15212;48.830;8.730;2024-03-02T09:18:32;9.80;99.90
27848;DHT22;15212;48.830;8.730;2024-03-02T09:21:00;9.90;99.90
27848;DHT22;15212;48.830;8.730;2024-03-02T09:23:28;10.00;99.90
27848;DHT22;15212;48.830;8.730;2024-03-02T09:25:57;10.10;99.90
27848;DHT22;15212;48.830;8.730;2024-03-02T09:28:25;10.10;99.90
27848;DHT22;15212;48.830;8.730;2024-03-02T09:30:54;10.10;99.90
27848;DHT22;15212;48.830;8.730;2024-03-02T09:33:22;10.00;99.90
27848;DHT22;15212;48.830;8.730;2024-03-02T09:35:51;10.10;99.90
27848;DHT22;15212;48.830;8.730;2024-03-02T09:38:19;10.20;99.90
27848;DHT22;15212;48.830;8.730;2024-03-02T09:40:48;10.10;99.90
27848;DHT22;15212;48.830;8.730;2024-03-02T09:43:17;10.20;99.90
27848;DHT22;15212;48.830;8.730;2024-03-02T09:45:46;10.30;99.90
27848;DHT22;15212;48.830;8.730;2024-03-02T09:48:14;10.30;99.90
27848;DHT22;15212;48.830;8.730;2024-03-02T09:50:45;10.50;99.90
27848;DHT22;15212;48.830;8.730;2024-03-02T09:53:14;10.50;99.90
27848;DHT22;15212;48.830;8.730;2024-03-02T09:55:47;10.60;99.90
27848;DHT22;15212;48.830;8.730;2024-03-02T09:58:16;10.60;99.90
27848;DHT22;15212;48.830;8.730;2024-03-02T10:00:44;10.70;99.90
27848;DHT22;15212;48.830;8.730;2024-03-02T10:03:13;10.80;99.90
27848;DHT22;15212;48.830;8.730;2024-03-02T10:05:42;10.90;99.90
27848;DHT22;15212;48.830;8.730;2024-03-02T10:08:11;10.90;99.90
27848;DHT22;15212;48.830;8.730;2024-03-02T10:10:40;11.00;99.90
27848;DHT22;15212;48.830;8.730;2024-03-02T10:13:12;11.10;99.90
27848;DHT22;15212;48.830;8.730;2024-03-02T10:15:41;11.20;99.90
27848;DHT22;15212;48.830;8.730;2024-03-02T10:18:11;11.10;99.90
27848;DHT22;15212;48.830;8.730;2024-03-02T10:20:42;11.10;99.90
27848;DHT22;15212;48.830;8.730;2024-03-02T10:23:15;11.20;99.90
27848;DHT22;15212;48.830;8.730;2024-03-02T10:25:44;11.40;99.90
27848;DHT22;15212;48.830;8.730;2024-03-02T10:28:13;11.40;99.90
27848;DHT22;15212;48.830;8.730;2024-03-02T10:30:41;11.50;99.90
27848;DHT22;15212;48.830;8.730;2024-03-02T10:33:10;11.60;99.90
27848;DHT22;15212;48.830;8.730;2024-03-02T10:35:39;11.70;99.90
27848;DHT22;15212;48.830;8.730;2024-03-02T10:38:07;11.70;99.90
27848;DHT22;15212;48.830;8.730;2024-03-02T10:40:35;11.70;99.90
27848;DHT22;15212;48.830;8.730;2024-03-02T10:43:05;11.70;99.90
27848;DHT22;15212;48.830;8.730;2024-03-02T10:45:34;11.70;99.90
27848;DHT22;15212;48.830;8.730;2024-03-02T10:48:03;11.80;99.90
27848;DHT22;15212;48.830;8.730;2024-03-02T10:50:31;11.80;99.90
27848;DHT22;15212;48.830;8.730;2024-03-02T10:53:00;11.90;99.90
27848;DHT22;15212;48.830;8.730;2024-03-02T10:55:29;11.90;99.90
27848;DHT22;15212;48.830;8.730;2024-03-02T10:57:59;11.90;99.90
27848;DHT22;15212;48.830;8.730;2024-03-02T11:00:32;12.00;99.90
27848;DHT22;15212;48.830;8.730;2024-03-02T11:03:08;12.10;99.90
27848;DHT22;15212;48.830;8.730;2024-03-02T11:05:38;12.10;99.90
27848;DHT22;15212;48.830;8.730;2024-03-02T11:08:12;12.20;99.90
27848;DHT22;15212;48.830;8.730;2024-03-02T11:10:54;12.20;99.90
27848;DHT22;15212;48.830;8.730;2024-03-02T11:13:27;12.20;99.90
27848;DHT22;15212;48.830;8.730;2024-03-02T11:15:59;12.20;99.90
27848;DHT22;15212;48.830;8.730;2024-03-02T11:18:32;12.30;99.90
27848;DHT22;15212;48.830;8.730;2024-03-02T11:21:00;12.30;99.90
27848;DHT22;15212;48.830;8.730;2024-03-02T11:23:34;12.40;99.90
27848;DHT22;15212;48.830;8.730;2024-03-02T11:26:21;12.40;99.90
27848;DHT22;15212;48.830;8.730;2024-03-02T11:28:51;12.40;99.90
27848;DHT22;15212;48.830;8.730;2024-03-02T11:31:19;12.40;99.90
27848;DHT22;15212;48.830;8.730;2024-03-02T11:33:47;12.40;99.90
27848;DHT22;15212;48.830;8.730;2024-03-02T11:36:16;12.40;99.90
27848;DHT22;15212;48.830;8.730;2024-03-02T11:38:44;12.40;99.90
27848;DHT22;15212;48.830;8.730;2024-03-02T11:41:14;12.60;99.90
27848;DHT22;15212;48.830;8.730;2024-03-02T11:43:43;12.60;99.90
27848;DHT22;15212;48.830;8.730;2024-03-02T11:46:12;12.60;99.90
27848;DHT22;15212;48.830;8.730;2024-03-02T11:48:40;12.70;99.90
27848;DHT22;15212;48.830;8.730;2024-03-02T11:51:09;12.80;99.90
27848;DHT22;15212;48.830;8.730;2024-03-02T11:53:39;12.90;99.90
27848;DHT22;15212;48.830;8.730;2024-03-02T11:56:09;13.00;99.90
27848;DHT22;15212;48.830;8.730;2024-03-02T11:58:40;13.10;99.90
27848;DHT22;15212;48.830;8.730;2024-03-02T12:01:08;13.20;99.90
27848;DHT22;15212;48.830;8.730;2024-03-02T12:03:39;13.20;99.90
27848;DHT22;15212;48.830;8.730;2024-03-02T12:06:08;13.20;99.90
27848;DHT22;15212;48.830;8.730;2024-03-02T12:08:36;13.20;99.90
27848;DHT22;15212;48.830;8.730;2024-03-02T12:11:05;13.20;99.90
27848;DHT22;15212;48.830;8.730;2024-03-02T12:13:33;13.20;99.90
27848;DHT22;15212;48.830;8.730;2024-03-02T12:16:01;13.20;99.90
27848;DHT22;15212;48.830;8.730;2024-03-02T12:18:30;13.30;99.90
27848;DHT22;15212;48.830;8.730;2024-03-02T12:20:58;13.40;99.90
27848;DHT22;15212;48.830;8.730;2024-03-02T12:23:29;13.40;99.90
27848;DHT22;15212;48.830;8.730;2024-03-02T12:25:57;13.40;99.90
27848;DHT22;15212;48.830;8.730;2024-03-02T12:28:25;13.50;99.90
27848;DHT22;15212;48.830;8.730;2024-03-02T12:30:54;13.50;99.90
27848;DHT22;15212;48.830;8.730;2024-03-02T12:33:23;13.50;99.90
27848;DHT22;15212;48.830;8.730;2024-03-02T12:35:51;13.40;99.90
27848;DHT22;15212;48.830;8.730;2024-03-02T12:38:20;13.40;99.90
27848;DHT22;15212;48.830;8.730;2024-03-02T12:40:50;13.20;99.90
27848;DHT22;15212;48.830;8.730;2024-03-02T12:43:19;13.20;99.90
27848;DHT22;15212;48.830;8.730;2024-03-02T12:45:49;13.20;99.90
27848;DHT22;15212;48.830;8.730;2024-03-02T12:48:18;13.20;99.90
27848;DHT22;15212;48.830;8.730;2024-03-02T12:50:47;13.30;99.90
27848;DHT22;15212;48.830;8.730;2024-03-02T12:53:16;13.40;99.90
27848;DHT22;15212;48.830;8.730;2024-03-02T12:55:44;13.50;99.90
27848;DHT22;15212;48.830;8.730;2024-03-02T12:58:20;13.50;99.90
27848;DHT22;15212;48.830;8.730;2024-03-02T13:00:49;13.40;99.90
27848;DHT22;15212;48.830;8.730;2024-03-02T13:03:19;13.40;99.90
27848;DHT22;15212;48.830;8.730;2024-03-02T13:05:49;13.40;99.90
27848;DHT22;15212;48.830;8.730;2024-03-02T13:08:18;13.40;99.90
27848;DHT22;15212;48.830;8.730;2024-03-02T13:10:47;13.30;99.90
27848;DHT22;15212;48.830;8.730;2024-03-02T13:13:15;13.20;99.90
27848;DHT22;15212;48.830;8.730;2024-03-02T13:15:44;13.20;99.90
27848;DHT22;15212;48.830;8.730;2024-03-02T13:18:12;13.20;99.90
27848;DHT22;15212;48.830;8.730;2024-03-02T13:20:41;13.20;99.90
27848;DHT22;15212;48.830;8.730;2024-03-02T13:23:09;13.20;99.90
27848;DHT22;15212;48.830;8.730;2024-03-02T13:25:38;13.20;99.90
27848;DHT22;15212;48.830;8.730;2024-03-02T13:28:06;13.30;99.90
27848;DHT22;15212;48.830;8.730;2024-03-02T13:30:35;13.30;99.90
27848;DHT22;15212;48.830;8.730;2024-03-02T13:33:03;13.40;99.90
27848;DHT22;15212;48.830;8.730;2024-03-02T13:35:32;13.50;99.90
27848;DHT22;15212;48.830;8.730;2024-03-02T13:38:00;13.40;99.90
27848;DHT22;15212;48.830;8.730;2024-03-02T13:40:29;13.40;99.90
27848;DHT22;15212;48.830;8.730;2024-03-02T13:42:59;13.30;99.90
27848;DHT22;15212;48.830;8.730;2024-03-02T13:45:28;13.10;99.90
27848;DHT22;15212;48.830;8.730;2024-03-02T13:47:56;13.00;99.90
27848;DHT22;15212;48.830;8.730;2024-03-02T13:50:24;12.90;99.90
27848;DHT22;15212;48.830;8.730;2024-03-02T13:52:53;12.90;99.90
27848;DHT22;15212;48.830;8.730;2024-03-02T13:55:21;12.80;99.90
27848;DHT22;15212;48.830;8.730;2024-03-02T13:57:50;12.80;99.90
27848;DHT22;15212;48.830;8.730;2024-03-02T14:00:18;12.80;99.90
27848;DHT22;15212;48.830;8.730;2024-03-02T14:02:47;12.90;99.90
27848;DHT22;15212;48.830;8.730;2024-03-02T14:05:17;12.90;99.90
27848;DHT22;15212;48.830;8.730;2024-03-02T14:07:45;12.90;99.90
27848;DHT22;15212;48.830;8.730;2024-03-02T14:10:14;12.90;99.90
27848;DHT22;15212;48.830;8.730;2024-03-02T14:12:43;13.00;99.90
27848;DHT22;15212;48.830;8.730;2024-03-02T14:15:11;13.10;99.90
27848;DHT22;15212;48.830;8.730;2024-03-02T14:17:40;13.10;99.90
27848;DHT22;15212;48.830;8.730;2024-03-02T14:20:09;13.00;99.90
27848;DHT22;15212;48.830;8.730;2024-03-02T14:22:40;13.00;99.90
27848;DHT22;15212;48.830;8.730;2024-03-02T14:25:08;13.00;99.90
27848;DHT22;15212;48.830;8.730;2024-03-02T14:27:37;13.00;99.90
27848;DHT22;15212;48.830;8.730;2024-03-02T14:30:06;12.90;99.90
27848;DHT22;15212;48.830;8.730;2024-03-02T14:32:35;12.80;99.90
27848;DHT22;15212;48.830;8.730;2024-03-02T14:35:04;12.80;99.90
27848;DHT22;15212;48.830;8.730;2024-03-02T14:37:35;12.80;99.90
27848;DHT22;15212;48.830;8.730;2024-03-02T14:40:04;12.70;99.90
27848;DHT22;15212;48.830;8.730;2024-03-02T14:42:35;12.60;99.90
27848;DHT22;15212;48.830;8.730;2024-03-02T14:45:04;12.60;99.90
27848;DHT22;15212;48.830;8.730;2024-03-02T14:47:33;12.50;99.90
27848;DHT22;15212;48.830;8.730;2024-03-02T14:50:02;12.50;99.90
27848;DHT22;15212;48.830;8.730;2024-03-02T14:52:33;12.50;99.90
27848;DHT22;15212;48.830;8.730;2024-03-02T14:55:02;12.50;99.90
27848;DHT22;15212;48.830;8.730;2024-03-02T14:57:32;12.40;99.90
27848;DHT22;15212;48.830;8.730;2024-03-02T15:00:01;12.30;99.90
27848;DHT22;15212;48.830;8.730;2024-03-02T15:02:32;12.20;99.90
27848;DHT22;15212;48.830;8.730;2024-03-02T15:05:00;12.10;99.90
27848;DHT22;15212;48.830;8.730;2024-03-02T15:07:29;12.10;99.90
27848;DHT22;15212;48.830;8.730;2024-03-02T15:09:58;12.00;99.90
27848;DHT22;15212;48.830;8.730;2024-03-02T15:12:26;12.00;99.90
27848;DHT22;15212;48.830;8.730;2024-03-02T15:14:54;11.90;99.90
27848;DHT22;15212;48.830;8.730;2024-03-02T15:17:23;11.80;99.90
27848;DHT22;15212;48.830;8.730;2024-03-02T15:19:52;11.80;99.90
27848;DHT22;15212;48.830;8.730;2024-03-02T15:22:21;11.70;99.90
27848;DHT22;15212;48.830;8.730;2024-03-02T15:24:49;11.70;99.90
27848;DHT22;15212;48.830;8.730;2024-03-02T15:27:17;11.60;99.90
27848;DHT22;15212;48.830;8.730;2024-03-02T15:29:46;11.60;99.90
27848;DHT22;15212;48.830;8.730;2024-03-02T15:32:16;11.60;99.90
27848;DHT22;15212;48.830;8.730;2024-03-02T15:34:44;11.50;99.90
27848;DHT22;15212;48.830;8.730;2024-03-02T15:37:13;11.50;99.90
27848;DHT22;15212;48.830;8.730;2024-03-02T15:39:41;11.50;99.90
27848;DHT22;15212;48.830;8.730;2024-03-02T15:42:10;11.40;99.90
27848;DHT22;15212;48.830;8.730;2024-03-02T15:44:39;11.40;99.90
27848;DHT22;15212;48.830;8.730;2024-03-02T15:47:07;11.30;99.90
27848;DHT22;15212;48.830;8.730;2024-03-02T15:49:36;11.30;99.90
27848;DHT22;15212;48.830;8.730;2024-03-02T15:52:04;11.30;99.90
27848;DHT22;15212;48.830;8.730;2024-03-02T15:54:33;11.20;99.90
27848;DHT22;15212;48.830;8.730;2024-03-02T15:57:01;11.20;99.90